Time;durP1;ratioP1;P1;durP2;ratioP2;P2;SDS_P1;SDS_P2;PMS_P1;PMS_P2;Temp;Humidity;BMP_temperature;BMP_pressure;BME280_temperature;BME280_humidity;BME280_pressure;Samples;Min_cycle;Max_cycle;Signal;HPM_P1;HPM_P2
2021/01/05 00:01:59;;;;;;;3.20;2.27;;;1.00;99.90;;;;;;5047288;28;20190;-80
2021/01/05 00:04:32;;;;;;;3.40;2.17;;;1.00;99.90;;;;;;5047681;28;20210;-79
2021/01/05 00:07:05;;;;;;;3.27;2.47;;;1.00;99.90;;;;;;5048981;28;20218;-79
2021/01/05 00:09:31;;;;;;;3.80;1.87;;;1.00;99.90;;;;;;5048697;28;20557;-80
2021/01/05 00:12:16;;;;;;;3.97;3.10;;;1.10;99.90;;;;;;5047627;28;20201;-80
2021/01/05 00:14:44;;;;;;;3.77;2.47;;;1.10;99.90;;;;;;5048807;28;20198;-79
2021/01/05 00:17:11;;;;;;;1.90;1.77;;;1.10;99.90;;;;;;5048107;28;20243;-79
2021/01/05 00:19:37;;;;;;;3.93;2.70;;;1.10;99.90;;;;;;5048593;28;20185;-78
2021/01/05 00:22:04;;;;;;;2.23;2.03;;;1.10;99.90;;;;;;5050338;28;20189;-79
2021/01/05 00:24:29;;;;;;;3.83;2.23;;;1.00;99.90;;;;;;5050043;28;20214;-79
2021/01/05 00:26:55;;;;;;;2.83;2.27;;;1.00;99.90;;;;;;5049264;28;20193;-78
2021/01/05 00:29:20;;;;;;;1.77;1.40;;;1.10;99.90;;;;;;5049495;28;20194;-78
2021/01/05 00:31:46;;;;;;;3.03;2.37;;;1.10;99.90;;;;;;5049731;28;20260;-78
2021/01/05 00:34:12;;;;;;;3.43;2.13;;;1.10;99.90;;;;;;5049451;28;20206;-79
2021/01/05 00:36:38;;;;;;;5.90;2.60;;;1.10;99.90;;;;;;5050285;28;20178;-79
2021/01/05 00:39:05;;;;;;;2.87;2.50;;;1.10;99.90;;;;;;5050019;28;20208;-79
2021/01/05 00:41:32;;;;;;;3.47;2.23;;;1.10;99.90;;;;;;5050335;28;20186;-79
2021/01/05 00:43:57;;;;;;;2.37;2.13;;;1.10;99.90;;;;;;5050878;28;20202;-78
2021/01/05 00:46:23;;;;;;;2.90;2.03;;;1.20;99.90;;;;;;5048977;28;20190;-79
2021/01/05 00:48:49;;;;;;;2.80;2.17;;;1.10;99.90;;;;;;5049954;28;20672;-80
2021/01/05 00:51:15;;;;;;;3.23;1.93;;;1.10;99.90;;;;;;5049748;28;20306;-79
2021/01/05 00:53:41;;;;;;;3.67;2.17;;;1.20;99.90;;;;;;5048606;28;20197;-79
2021/01/05 00:56:07;;;;;;;3.63;2.87;;;1.10;99.90;;;;;;5050531;28;20247;-79
2021/01/05 00:58:33;;;;;;;4.60;3.07;;;1.10;99.90;;;;;;5048922;28;20769;-80
2021/01/05 01:00:59;;;;;;;4.30;2.83;;;1.10;99.90;;;;;;5051128;28;20222;-79
2021/01/05 01:03:25;;;;;;;3.33;2.30;;;1.10;99.90;;;;;;5049021;28;20225;-79
2021/01/05 01:05:50;;;;;;;4.53;3.33;;;1.00;99.90;;;;;;5048465;28;20241;-80
2021/01/05 01:08:18;;;;;;;3.60;2.53;;;1.10;99.90;;;;;;5048582;28;20217;-79
2021/01/05 01:10:43;;;;;;;6.20;2.23;;;1.20;99.90;;;;;;5048620;28;20186;-79
2021/01/05 01:13:10;;;;;;;3.47;2.60;;;1.10;99.90;;;;;;5048623;28;20256;-78
2021/01/05 01:15:37;;;;;;;2.50;2.17;;;1.10;99.90;;;;;;5048697;28;20232;-79
2021/01/05 01:18:05;;;;;;;2.87;2.13;;;1.10;99.90;;;;;;5049878;28;20187;-79
2021/01/05 01:20:32;;;;;;;3.67;3.07;;;1.10;99.90;;;;;;5049207;28;20224;-81
2021/01/05 01:22:58;;;;;;;3.60;2.57;;;1.20;99.90;;;;;;5047808;28;20570;-79
2021/01/05 01:25:23;;;;;;;4.67;3.00;;;1.20;99.90;;;;;;5050038;28;20223;-79
2021/01/05 01:27:49;;;;;;;3.57;2.53;;;1.10;99.90;;;;;;5048344;28;20680;-79
2021/01/05 01:30:17;;;;;;;3.03;2.50;;;1.10;99.90;;;;;;5049019;28;20186;-78
2021/01/05 01:32:44;;;;;;;4.30;2.87;;;1.20;99.90;;;;;;5050141;28;20223;-80
2021/01/05 01:35:10;;;;;;;4.00;2.60;;;1.10;99.90;;;;;;5049457;28;20765;-79
2021/01/05 01:37:35;;;;;;;4.43;2.97;;;1.10;99.90;;;;;;5047923;28;20198;-80
2021/01/05 01:40:01;;;;;;;3.97;3.10;;;1.10;99.90;;;;;;5049933;28;20182;-79
2021/01/05 01:42:27;;;;;;;3.07;2.47;;;1.00;99.90;;;;;;5049805;28;20194;-78
2021/01/05 01:44:53;;;;;;;4.70;3.33;;;1.10;99.90;;;;;;5049960;28;20213;-78
2021/01/05 01:47:23;;;;;;;3.63;2.67;;;1.10;99.90;;;;;;5048507;28;20232;-78
2021/01/05 01:49:52;;;;;;;4.73;2.70;;;1.10;99.90;;;;;;5048217;28;20252;-79
2021/01/05 01:52:45;;;;;;;4.50;3.23;;;1.10;99.90;;;;;;5064111;28;20206;-79
2021/01/05 01:55:34;;;;;;;2.87;2.10;;;1.00;99.90;;;;;;5047917;28;20218;-82
2021/01/05 01:58:18;;;;;;;3.63;2.23;;;1.00;99.90;;;;;;5047640;28;20222;-78
2021/01/05 02:00:52;;;;;;;3.63;2.80;;;1.00;99.90;;;;;;5048488;28;21022;-78
2021/01/05 02:03:46;;;;;;;3.33;2.40;;;1.00;99.90;;;;;;5048746;28;20266;-78
2021/01/05 02:06:45;;;;;;;6.27;3.03;;;1.10;99.90;;;;;;5049529;28;20232;-80
2021/01/05 02:09:43;;;;;;;4.07;2.73;;;1.00;99.90;;;;;;5049598;28;20301;-79
2021/01/05 02:12:20;;;;;;;3.80;2.80;;;1.00;99.90;;;;;;5048467;28;20214;-79
2021/01/05 02:15:31;;;;;;;5.87;3.70;;;1.00;99.90;;;;;;5049673;28;20734;-81
2021/01/05 02:18:12;;;;;;;4.67;3.17;;;0.90;99.90;;;;;;5049881;28;20245;-78
2021/01/05 02:20:44;;;;;;;3.17;2.87;;;0.90;99.90;;;;;;5049099;28;20247;-79
2021/01/05 02:23:54;;;;;;;3.60;2.53;;;0.90;99.90;;;;;;5050409;28;20204;-79
2021/01/05 02:26:46;;;;;;;4.93;3.30;;;0.90;99.90;;;;;;5001865;28;20245;-78
2021/01/05 02:29:25;;;;;;;4.30;2.63;;;0.90;99.90;;;;;;5048285;28;20182;-79
2021/01/05 02:32:14;;;;;;;5.17;3.00;;;0.90;99.90;;;;;;5049715;28;20205;-77
2021/01/05 02:34:56;;;;;;;4.60;3.10;;;0.90;99.90;;;;;;5049541;28;20301;-77
2021/01/05 02:37:44;;;;;;;4.93;3.57;;;1.00;99.90;;;;;;5049593;28;20593;-77
2021/01/05 02:40:38;;;;;;;5.07;3.23;;;1.00;99.90;;;;;;5047248;28;20199;-77
2021/01/05 02:43:22;;;;;;;3.07;2.70;;;0.90;99.90;;;;;;5050375;28;20230;-77
2021/01/05 02:46:09;;;;;;;3.23;2.63;;;0.90;99.90;;;;;;5048127;28;20220;-80
2021/01/05 02:48:54;;;;;;;3.60;2.90;;;1.00;99.90;;;;;;5049190;28;20193;-80
2021/01/05 02:51:50;;;;;;;3.93;2.87;;;1.00;99.90;;;;;;5048184;28;20214;-79
2021/01/05 02:54:59;;;;;;;3.40;2.40;;;1.00;99.90;;;;;;5047626;28;20218;-76
2021/01/05 02:58:03;;;;;;;3.73;2.67;;;1.00;99.90;;;;;;5046794;28;20190;-78
2021/01/05 03:01:10;;;;;;;2.73;1.93;;;1.10;99.90;;;;;;5047887;28;20190;-77
2021/01/05 03:03:46;;;;;;;2.93;2.23;;;1.10;99.90;;;;;;5038825;28;20205;-81
2021/01/05 03:06:20;;;;;;;3.33;2.30;;;1.00;99.90;;;;;;5047762;28;20178;-79
2021/01/05 03:09:11;;;;;;;6.10;2.90;;;1.00;99.90;;;;;;5047759;28;20545;-79
2021/01/05 03:12:00;;;;;;;4.07;3.23;;;1.00;99.90;;;;;;5050185;28;20213;-78
2021/01/05 03:14:59;;;;;;;4.83;2.57;;;1.10;99.90;;;;;;5050242;28;20214;-79
2021/01/05 03:17:34;;;;;;;2.77;1.80;;;1.10;99.90;;;;;;5048492;28;20194;-78
2021/01/05 03:20:21;;;;;;;4.13;2.73;;;1.00;99.90;;;;;;5047828;28;20553;-80
2021/01/05 03:22:52;;;;;;;3.90;2.97;;;1.00;99.90;;;;;;5048224;28;20186;-80
2021/01/05 03:25:20;;;;;;;4.40;3.40;;;1.00;99.90;;;;;;5050313;28;20232;-79
2021/01/05 03:27:46;;;;;;;5.53;3.27;;;1.00;99.90;;;;;;5050568;28;20198;-79
2021/01/05 03:30:32;;;;;;;4.33;3.00;;;1.00;99.90;;;;;;5051774;28;20883;-79
2021/01/05 03:32:58;;;;;;;3.97;2.13;;;1.00;99.90;;;;;;5053251;28;20228;-79
2021/01/05 03:35:26;;;;;;;4.73;3.40;;;1.00;99.90;;;;;;5051857;28;20241;-79
2021/01/05 03:37:53;;;;;;;6.77;4.07;;;1.00;99.90;;;;;;5051031;28;20725;-78
2021/01/05 03:40:18;;;;;;;3.87;2.87;;;0.90;99.90;;;;;;5050946;28;20204;-77
2021/01/05 03:42:44;;;;;;;7.23;3.17;;;1.00;99.90;;;;;;5052715;28;20668;-77
2021/01/05 03:45:17;;;;;;;5.40;3.93;;;1.00;99.90;;;;;;5051013;28;20218;-78
2021/01/05 03:47:43;;;;;;;4.20;2.20;;;1.00;99.90;;;;;;5050909;28;20228;-79
2021/01/05 03:50:09;;;;;;;2.80;1.83;;;0.90;99.90;;;;;;5052439;28;20186;-79
2021/01/05 03:52:34;;;;;;;5.03;2.90;;;1.00;99.90;;;;;;5050078;28;20206;-77
2021/01/05 03:55:00;;;;;;;5.27;3.43;;;1.00;99.90;;;;;;5049498;28;20308;-79
2021/01/05 03:57:25;;;;;;;5.50;3.30;;;1.10;99.90;;;;;;5051943;28;20626;-81
2021/01/05 03:59:51;;;;;;;5.20;3.27;;;1.10;99.90;;;;;;5052089;28;20182;-77
2021/01/05 04:02:16;;;;;;;4.13;2.93;;;1.00;99.90;;;;;;5050328;28;20190;-78
2021/01/05 04:04:42;;;;;;;4.53;2.50;;;1.10;99.90;;;;;;5050701;28;20206;-78
2021/01/05 04:07:08;;;;;;;16.73;12.00;;;1.00;99.90;;;;;;5050307;28;20179;-77
2021/01/05 04:09:33;;;;;;;14.53;9.27;;;1.10;99.90;;;;;;5050617;28;20277;-78
2021/01/05 04:11:59;;;;;;;5.90;3.77;;;1.00;99.90;;;;;;5050629;28;20214;-79
2021/01/05 04:14:24;;;;;;;4.67;3.30;;;1.10;99.90;;;;;;5051786;28;20202;-79
2021/01/05 04:16:50;;;;;;;6.13;3.47;;;1.00;99.90;;;;;;5049453;28;20198;-78
2021/01/05 04:19:15;;;;;;;4.43;3.80;;;1.00;99.90;;;;;;5050404;28;20178;-79
2021/01/05 04:21:41;;;;;;;4.63;3.83;;;0.90;99.90;;;;;;5050964;28;20309;-78
2021/01/05 04:24:07;;;;;;;2.80;2.13;;;1.10;99.90;;;;;;5050059;28;20210;-79
2021/01/05 04:26:33;;;;;;;4.03;3.07;;;1.00;99.90;;;;;;5051182;28;20306;-78
2021/01/05 04:28:59;;;;;;;2.90;2.00;;;1.00;99.90;;;;;;5049910;28;20194;-77
2021/01/05 04:31:25;;;;;;;3.20;2.90;;;1.00;99.90;;;;;;5049100;28;20217;-78
2021/01/05 04:33:51;;;;;;;3.43;2.40;;;1.00;99.90;;;;;;5049223;28;20206;-80
2021/01/05 04:36:17;;;;;;;2.83;2.40;;;1.00;99.90;;;;;;5049043;28;20557;-80
2021/01/05 04:38:42;;;;;;;3.93;2.20;;;1.00;99.90;;;;;;5048685;28;20212;-79
2021/01/05 04:41:16;;;;;;;2.53;1.70;;;1.10;99.90;;;;;;5049435;28;20625;-79
2021/01/05 04:43:51;;;;;;;2.43;2.13;;;1.00;99.90;;;;;;5050611;28;20197;-78
2021/01/05 04:46:19;;;;;;;3.40;2.17;;;1.10;99.90;;;;;;5049565;28;20611;-79
2021/01/05 04:49:16;;;;;;;3.83;2.80;;;1.00;99.90;;;;;;5065165;28;20190;-81
2021/01/05 04:51:52;;;;;;;3.47;2.47;;;1.10;99.90;;;;;;5048220;28;20202;-78
2021/01/05 04:54:58;;;;;;;2.83;2.10;;;1.10;99.90;;;;;;5047911;28;20606;-78
2021/01/05 04:57:26;;;;;;;2.07;1.60;;;1.10;99.90;;;;;;5047638;28;20190;-79
2021/01/05 04:59:57;;;;;;;2.83;2.23;;;1.10;99.90;;;;;;5050159;28;20656;-80
2021/01/05 05:02:28;;;;;;;3.47;2.10;;;1.00;99.90;;;;;;5049453;28;20232;-81
2021/01/05 05:05:22;;;;;;;2.70;2.03;;;1.10;99.90;;;;;;5049369;28;20202;-78
2021/01/05 05:08:04;;;;;;;3.40;1.63;;;1.10;99.90;;;;;;5056196;28;20648;-79
2021/01/05 05:10:40;;;;;;;2.63;1.83;;;1.10;99.90;;;;;;5048612;28;20228;-79
2021/01/05 05:13:24;;;;;;;10.30;3.60;;;1.10;99.90;;;;;;5063725;28;20181;-77
2021/01/05 05:15:56;;;;;;;2.93;1.93;;;1.10;99.90;;;;;;5048818;28;20835;-79
2021/01/05 05:18:40;;;;;;;4.33;2.60;;;1.10;99.90;;;;;;5047411;28;20182;-79
2021/01/05 05:21:23;;;;;;;2.63;2.33;;;1.10;99.90;;;;;;5048264;28;20253;-78
2021/01/05 05:24:29;;;;;;;2.40;1.60;;;1.00;99.90;;;;;;5047444;28;20201;-77
2021/01/05 05:27:17;;;;;;;1.40;1.30;;;1.10;99.90;;;;;;5048560;28;20182;-77
2021/01/05 05:29:49;;;;;;;1.83;1.73;;;1.10;99.90;;;;;;5048664;28;20194;-79
2021/01/05 05:32:55;;;;;;;2.27;1.83;;;1.10;99.90;;;;;;5048754;28;20198;-77
2021/01/05 05:35:59;;;;;;;3.20;1.30;;;1.10;99.90;;;;;;5064337;28;20262;-79
2021/01/05 05:38:46;;;;;;;1.97;1.50;;;1.10;99.90;;;;;;5039435;28;20202;-80
2021/01/05 05:41:43;;;;;;;1.33;1.10;;;1.10;99.90;;;;;;5048159;28;20213;-78
2021/01/05 05:44:22;;;;;;;1.90;1.70;;;1.20;99.90;;;;;;5048526;28;20277;-78
2021/01/05 05:47:11;;;;;;;1.47;1.07;;;1.20;99.90;;;;;;5048410;28;20639;-78
2021/01/05 05:49:51;;;;;;;2.93;2.00;;;1.10;99.90;;;;;;5047509;28;20189;-79
2021/01/05 05:52:47;;;;;;;2.73;1.77;;;1.10;99.90;;;;;;5048613;28;20204;-79
2021/01/05 05:55:54;;;;;;;3.77;2.40;;;1.10;99.90;;;;;;5048066;28;20214;-77
2021/01/05 05:58:28;;;;;;;3.50;2.10;;;1.20;99.90;;;;;;5048357;28;20197;-78
2021/01/05 06:00:56;;;;;;;2.33;1.73;;;1.30;99.90;;;;;;5048845;28;20883;-79
2021/01/05 06:03:24;;;;;;;2.10;1.17;;;1.30;99.90;;;;;;5046914;28;20204;-78
2021/01/05 06:05:50;;;;;;;2.30;2.03;;;1.20;99.90;;;;;;5046048;28;20301;-78
2021/01/05 06:08:18;;;;;;;2.13;1.73;;;1.20;99.90;;;;;;5046400;28;20270;-81
2021/01/05 06:10:44;;;;;;;2.97;2.07;;;1.20;99.90;;;;;;5046231;28;20189;-76
2021/01/05 06:13:10;;;;;;;2.57;2.37;;;1.20;99.90;;;;;;5046523;28;20194;-79
2021/01/05 06:15:36;;;;;;;2.90;2.27;;;1.20;99.90;;;;;;5046940;28;20198;-80
2021/01/05 06:18:07;;;;;;;4.20;2.70;;;1.20;99.90;;;;;;5047992;28;20208;-77
2021/01/05 06:20:33;;;;;;;2.30;2.17;;;1.20;99.90;;;;;;5047814;28;20198;-78
2021/01/05 06:22:58;;;;;;;1.73;1.53;;;1.20;99.90;;;;;;5048064;28;20228;-79
2021/01/05 06:25:24;;;;;;;3.70;1.83;;;1.20;99.90;;;;;;5047592;28;20213;-78
2021/01/05 06:27:50;;;;;;;3.27;2.13;;;1.20;99.90;;;;;;5048422;28;20198;-79
2021/01/05 06:30:16;;;;;;;1.97;1.40;;;1.20;99.90;;;;;;5046520;28;20770;-78
2021/01/05 06:32:42;;;;;;;3.57;2.10;;;1.30;99.90;;;;;;5063153;28;20251;-80
2021/01/05 06:35:09;;;;;;;2.47;1.87;;;1.30;99.90;;;;;;5062718;28;20202;-80
2021/01/05 06:37:35;;;;;;;2.23;1.80;;;1.20;99.90;;;;;;5047186;28;21158;-77
2021/01/05 06:40:01;;;;;;;2.40;1.63;;;1.30;99.90;;;;;;5046246;28;20200;-78
2021/01/05 06:42:26;;;;;;;2.07;1.60;;;1.20;99.90;;;;;;5047200;28;21150;-79
2021/01/05 06:44:52;;;;;;;3.90;2.67;;;1.30;99.90;;;;;;5046836;28;20258;-78
2021/01/05 06:47:18;;;;;;;4.00;2.33;;;1.30;99.90;;;;;;5045369;28;20198;-78
2021/01/05 06:49:43;;;;;;;1.77;1.37;;;1.30;99.90;;;;;;5047011;28;20221;-78
2021/01/05 06:52:10;;;;;;;2.40;2.20;;;1.30;99.90;;;;;;5045264;28;20202;-79
2021/01/05 06:54:35;;;;;;;5.80;4.00;;;1.30;99.90;;;;;;5046014;28;20244;-78
2021/01/05 06:57:01;;;;;;;6.40;3.87;;;1.30;99.90;;;;;;5045213;28;20267;-77
2021/01/05 06:59:28;;;;;;;24.10;15.70;;;1.30;99.90;;;;;;5046658;28;20190;-79
2021/01/05 07:02:03;;;;;;;5.47;3.83;;;1.40;99.90;;;;;;5047796;28;20206;-77
2021/01/05 07:04:29;;;;;;;6.97;3.17;;;1.40;99.90;;;;;;5046358;28;20247;-77
2021/01/05 07:06:56;;;;;;;4.50;2.70;;;1.40;99.90;;;;;;5048089;28;20894;-78
2021/01/05 07:09:22;;;;;;;6.50;3.43;;;1.30;99.90;;;;;;5049265;28;20573;-77
2021/01/05 07:11:49;;;;;;;14.33;7.37;;;1.30;99.90;;;;;;5049348;28;20225;-78
2021/01/05 07:14:23;;;;;;;7.07;5.23;;;1.30;99.90;;;;;;5052610;28;20206;-78
2021/01/05 07:16:49;;;;;;;3.13;2.37;;;1.30;99.90;;;;;;5050919;28;20177;-78
2021/01/05 07:19:15;;;;;;;5.97;4.23;;;1.40;99.90;;;;;;5051833;28;20183;-78
2021/01/05 07:21:41;;;;;;;10.07;5.60;;;1.40;99.90;;;;;;5052371;28;20201;-77
2021/01/05 07:24:07;;;;;;;8.10;4.83;;;1.40;99.90;;;;;;5052042;28;20209;-78
2021/01/05 07:26:34;;;;;;;5.03;3.97;;;1.40;99.90;;;;;;5052648;28;20186;-78
2021/01/05 07:29:00;;;;;;;5.20;2.90;;;1.40;99.90;;;;;;5053696;28;20715;-77
2021/01/05 07:31:26;;;;;;;4.03;2.83;;;1.40;99.90;;;;;;5053061;28;20266;-78
2021/01/05 07:33:52;;;;;;;3.50;2.40;;;1.40;99.90;;;;;;5051223;28;20210;-77
2021/01/05 07:36:23;;;;;;;4.37;3.30;;;1.30;99.90;;;;;;5051186;28;20193;-78
2021/01/05 07:38:50;;;;;;;6.50;3.80;;;1.30;99.90;;;;;;5053447;28;20253;-79
2021/01/05 07:41:16;;;;;;;6.87;4.93;;;1.40;99.90;;;;;;5051603;28;20678;-79
2021/01/05 07:43:41;;;;;;;6.80;4.23;;;1.30;99.90;;;;;;5049566;28;20186;-78
2021/01/05 07:46:07;;;;;;;6.73;3.53;;;1.30;99.90;;;;;;5050507;28;20193;-78
2021/01/05 07:48:32;;;;;;;4.77;2.87;;;1.30;99.90;;;;;;5048138;28;20190;-78
2021/01/05 07:50:58;;;;;;;4.60;3.67;;;1.30;99.90;;;;;;5047157;28;20229;-79
2021/01/05 07:53:24;;;;;;;4.87;3.40;;;1.40;99.90;;;;;;5048138;28;20736;-79
2021/01/05 07:55:49;;;;;;;3.43;2.60;;;1.40;99.90;;;;;;5047805;28;20221;-78
2021/01/05 07:58:15;;;;;;;3.57;1.70;;;1.30;99.90;;;;;;5048274;28;20619;-79
2021/01/05 08:00:40;;;;;;;3.80;2.23;;;1.40;99.90;;;;;;5047592;28;20204;-79
2021/01/05 08:03:09;;;;;;;4.50;3.27;;;1.40;99.90;;;;;;5046379;28;20186;-78
2021/01/05 08:05:35;;;;;;;5.10;3.63;;;1.40;99.90;;;;;;5047744;28;20272;-77
2021/01/05 08:08:00;;;;;;;6.00;4.07;;;1.50;99.90;;;;;;5063044;28;20590;-79
2021/01/05 08:10:37;;;;;;;5.20;4.17;;;1.40;99.90;;;;;;5062568;28;20186;-77
2021/01/05 08:13:09;;;;;;;3.57;3.27;;;1.40;99.90;;;;;;5044778;28;20296;-77
2021/01/05 08:15:35;;;;;;;5.33;3.33;;;1.40;99.90;;;;;;5047647;28;20333;-80
2021/01/05 08:18:01;;;;;;;4.37;3.23;;;1.40;99.90;;;;;;5047626;28;20231;-77
2021/01/05 08:20:29;;;;;;;5.73;5.20;;;1.40;99.90;;;;;;5046493;28;20727;-79
2021/01/05 08:22:55;;;;;;;3.87;3.33;;;1.40;99.90;;;;;;5048104;28;20187;-79
2021/01/05 08:25:22;;;;;;;2.80;2.17;;;1.40;99.90;;;;;;5046230;28;20245;-80
2021/01/05 08:27:49;;;;;;;5.17;3.47;;;1.40;99.90;;;;;;5047968;28;20190;-79
2021/01/05 08:30:15;;;;;;;4.03;2.77;;;1.40;99.90;;;;;;5047556;28;20194;-77
2021/01/05 08:32:41;;;;;;;3.03;2.30;;;1.50;99.90;;;;;;5062813;28;20618;-78
2021/01/05 08:35:08;;;;;;;12.00;5.97;;;1.40;99.90;;;;;;5045522;28;20214;-78
2021/01/05 08:37:36;;;;;;;4.23;3.33;;;1.40;99.90;;;;;;5047478;28;20186;-78
2021/01/05 08:40:04;;;;;;;3.50;2.70;;;1.50;99.90;;;;;;5045877;28;20953;-78
2021/01/05 08:42:29;;;;;;;7.37;4.83;;;1.50;99.90;;;;;;5046541;28;20263;-77
2021/01/05 08:44:55;;;;;;;3.53;2.50;;;1.50;99.90;;;;;;5045874;28;20249;-78
2021/01/05 08:47:21;;;;;;;6.13;3.83;;;1.50;99.90;;;;;;5047346;28;20240;-79
2021/01/05 08:49:46;;;;;;;9.70;6.03;;;1.60;99.90;;;;;;5046937;28;20197;-79
2021/01/05 08:52:12;;;;;;;3.43;3.13;;;1.50;99.90;;;;;;5044444;28;20210;-77
2021/01/05 08:54:37;;;;;;;9.30;6.93;;;1.50;99.90;;;;;;5047114;28;20288;-81
2021/01/05 08:57:04;;;;;;;7.43;5.53;;;1.50;99.90;;;;;;5045288;28;20197;-79
2021/01/05 08:59:30;;;;;;;7.17;4.80;;;1.50;99.90;;;;;;5044992;28;20186;-79
2021/01/05 09:01:55;;;;;;;10.87;8.73;;;1.50;99.90;;;;;;5045043;28;20201;-79
2021/01/05 09:04:21;;;;;;;7.10;4.43;;;1.70;99.90;;;;;;5046502;28;20218;-79
2021/01/05 09:06:48;;;;;;;5.43;3.70;;;1.50;99.90;;;;;;5043709;28;20185;-78
2021/01/05 09:09:15;;;;;;;15.40;10.83;;;1.50;99.90;;;;;;5044939;28;20523;-79
2021/01/05 09:11:41;;;;;;;3.57;2.70;;;1.50;99.90;;;;;;5043524;28;20231;-78
2021/01/05 09:14:06;;;;;;;3.30;2.57;;;1.50;99.90;;;;;;5044330;28;20202;-80
2021/01/05 09:16:32;;;;;;;7.27;5.33;;;1.50;99.90;;;;;;5044720;28;20270;-78
2021/01/05 09:18:58;;;;;;;5.97;3.07;;;1.50;99.90;;;;;;5043881;28;20185;-77
2021/01/05 09:21:29;;;;;;;3.77;2.60;;;1.40;99.90;;;;;;5043739;28;20186;-78
2021/01/05 09:23:59;;;;;;;3.00;2.50;;;1.40;99.90;;;;;;5042609;28;20598;-79
2021/01/05 09:26:34;;;;;;;3.87;2.60;;;1.40;99.90;;;;;;5059659;28;20194;-79
2021/01/05 09:29:04;;;;;;;3.80;2.63;;;1.40;99.90;;;;;;5043390;28;20198;-80
2021/01/05 09:31:30;;;;;;;3.87;2.97;;;1.40;99.90;;;;;;5043243;28;20296;-78
2021/01/05 09:33:55;;;;;;;5.47;2.67;;;1.30;99.90;;;;;;5044503;28;20204;-78
2021/01/05 09:36:30;;;;;;;4.17;2.43;;;1.30;99.90;;;;;;5045056;28;20214;-79
2021/01/05 09:38:56;;;;;;;3.70;2.67;;;1.30;99.90;;;;;;5042914;28;20235;-79
2021/01/05 09:41:24;;;;;;;3.77;2.20;;;1.40;99.90;;;;;;5044291;28;20204;-78
2021/01/05 09:43:50;;;;;;;6.27;3.87;;;1.40;99.90;;;;;;5059848;28;20214;-79
2021/01/05 09:46:17;;;;;;;5.30;3.40;;;1.40;99.90;;;;;;5043090;28;20240;-78
2021/01/05 09:48:42;;;;;;;4.93;3.60;;;1.40;99.90;;;;;;5043269;28;20190;-77
2021/01/05 09:51:08;;;;;;;2.60;1.80;;;1.40;99.90;;;;;;5044724;28;20220;-78
2021/01/05 09:53:35;;;;;;;2.90;2.43;;;1.40;99.90;;;;;;5043969;28;20285;-78
2021/01/05 09:56:00;;;;;;;3.27;2.60;;;1.40;99.90;;;;;;5060381;28;20201;-76
2021/01/05 09:58:26;;;;;;;2.93;2.03;;;1.50;99.90;;;;;;5044360;28;20190;-80
2021/01/05 10:00:51;;;;;;;4.03;2.60;;;1.60;99.90;;;;;;5044237;28;20182;-78
2021/01/05 10:03:17;;;;;;;3.73;2.20;;;1.60;99.90;;;;;;5044261;28;20218;-78
2021/01/05 10:05:42;;;;;;;3.57;2.47;;;1.50;99.90;;;;;;5042734;28;20252;-78
2021/01/05 10:08:08;;;;;;;3.70;2.37;;;1.50;99.90;;;;;;5059156;28;20367;-78
2021/01/05 10:10:34;;;;;;;3.57;2.00;;;1.50;99.90;;;;;;5044175;28;20190;-79
2021/01/05 10:13:00;;;;;;;2.63;1.80;;;1.50;99.90;;;;;;5041478;28;20214;-77
2021/01/05 10:15:25;;;;;;;4.13;2.60;;;1.40;99.90;;;;;;5044058;28;20217;-78
2021/01/05 10:17:51;;;;;;;5.30;2.63;;;1.40;99.90;;;;;;5044236;28;20214;-78
2021/01/05 10:20:20;;;;;;;3.67;2.27;;;1.50;99.90;;;;;;5042400;28;20213;-77
2021/01/05 10:22:47;;;;;;;2.97;2.03;;;1.40;99.90;;;;;;5042530;28;20189;-78
2021/01/05 10:25:12;;;;;;;4.93;2.40;;;1.50;99.90;;;;;;5044170;28;20288;-80
2021/01/05 10:27:38;;;;;;;2.53;2.27;;;1.50;99.90;;;;;;5042576;28;20736;-79
2021/01/05 10:30:07;;;;;;;4.97;3.10;;;1.50;99.90;;;;;;5045227;28;20656;-78
2021/01/05 10:32:33;;;;;;;4.57;3.67;;;1.50;99.90;;;;;;5046193;28;20260;-78
2021/01/05 10:34:58;;;;;;;2.23;1.90;;;1.50;99.90;;;;;;5043514;28;20206;-78
2021/01/05 10:37:24;;;;;;;2.57;2.10;;;1.40;99.90;;;;;;5045878;28;20189;-77
2021/01/05 10:39:49;;;;;;;2.70;2.30;;;1.40;99.90;;;;;;5045714;28;20228;-78
2021/01/05 10:42:15;;;;;;;3.73;2.20;;;1.50;99.90;;;;;;5046346;28;20596;-77
2021/01/05 10:44:41;;;;;;;2.50;1.77;;;1.60;99.90;;;;;;5044096;28;20292;-78
2021/01/05 10:47:07;;;;;;;2.07;1.70;;;1.50;99.90;;;;;;5046375;28;20243;-79
2021/01/05 10:49:33;;;;;;;2.47;1.73;;;1.50;99.90;;;;;;5047002;28;20194;-79
2021/01/05 10:52:01;;;;;;;2.27;2.07;;;1.50;99.90;;;;;;5046347;28;20609;-79
2021/01/05 10:54:29;;;;;;;3.10;2.50;;;1.60;99.90;;;;;;5044858;28;20218;-79
2021/01/05 10:57:00;;;;;;;3.97;2.87;;;1.60;99.90;;;;;;5044618;28;20660;-80
2021/01/05 10:59:27;;;;;;;4.53;3.40;;;1.60;99.90;;;;;;5044835;28;20216;-80
2021/01/05 11:01:55;;;;;;;3.20;2.83;;;1.80;99.90;;;;;;5044500;28;20204;-80
2021/01/05 11:04:22;;;;;;;3.27;2.63;;;1.70;99.90;;;;;;5044336;28;20596;-79
2021/01/05 11:06:55;;;;;;;2.87;2.40;;;1.60;99.90;;;;;;5044431;28;20281;-80
2021/01/05 11:09:22;;;;;;;2.30;2.07;;;1.60;99.90;;;;;;5043874;28;20734;-79
2021/01/05 11:11:57;;;;;;;2.67;2.30;;;1.50;99.90;;;;;;5044129;28;20280;-79
2021/01/05 11:14:23;;;;;;;2.73;1.87;;;1.60;99.90;;;;;;5060622;28;20201;-79
2021/01/05 11:16:49;;;;;;;2.30;2.00;;;1.50;99.90;;;;;;5045800;28;20427;-79
2021/01/05 11:19:15;;;;;;;3.07;2.30;;;1.50;99.90;;;;;;5044718;28;20597;-80
2021/01/05 11:21:47;;;;;;;2.53;2.33;;;1.50;99.90;;;;;;5044048;28;20194;-80
2021/01/05 11:24:12;;;;;;;2.73;1.43;;;1.40;99.90;;;;;;5044105;28;20252;-80
2021/01/05 11:26:38;;;;;;;2.13;1.87;;;1.50;99.90;;;;;;5045325;28;20186;-79
2021/01/05 11:29:04;;;;;;;3.33;2.07;;;1.50;99.90;;;;;;5044017;28;20800;-80
2021/01/05 11:31:30;;;;;;;2.23;1.80;;;1.50;99.90;;;;;;5045558;28;20603;-80
2021/01/05 11:33:55;;;;;;;2.63;2.03;;;1.50;99.90;;;;;;5045436;28;20683;-80
2021/01/05 11:36:26;;;;;;;3.57;2.50;;;1.50;99.90;;;;;;5047443;28;20194;-80
2021/01/05 11:38:53;;;;;;;3.03;2.53;;;1.50;99.90;;;;;;5048018;28;20217;-80
2021/01/05 11:41:23;;;;;;;2.57;2.03;;;1.50;99.90;;;;;;5047876;28;20190;-80
2021/01/05 11:43:49;;;;;;;2.03;1.73;;;1.40;99.90;;;;;;5048285;28;20177;-80
2021/01/05 11:46:16;;;;;;;4.70;3.17;;;1.50;99.90;;;;;;5047022;28;20178;-80
2021/01/05 11:48:41;;;;;;;6.20;4.47;;;1.50;99.90;;;;;;5046874;28;20186;-81
2021/01/05 11:51:07;;;;;;;8.67;4.23;;;1.50;99.90;;;;;;5047293;28;20689;-80
2021/01/05 11:53:32;;;;;;;8.00;4.53;;;1.50;99.90;;;;;;5048259;28;20631;-80
2021/01/05 11:55:58;;;;;;;5.93;3.67;;;1.50;99.90;;;;;;5047696;28;20182;-80
2021/01/05 11:58:23;;;;;;;5.00;3.57;;;1.60;99.90;;;;;;5047084;28;20182;-81
2021/01/05 12:00:49;;;;;;;6.53;4.40;;;1.60;99.90;;;;;;5048322;28;20179;-80
2021/01/05 12:03:14;;;;;;;6.00;3.70;;;1.60;99.90;;;;;;5048438;28;20182;-80
2021/01/05 12:05:40;;;;;;;5.43;3.53;;;1.60;99.90;;;;;;5049949;28;20324;-77
2021/01/05 12:08:06;;;;;;;5.90;4.07;;;1.60;99.90;;;;;;5048202;28;20252;-80
2021/01/05 12:10:31;;;;;;;4.73;3.30;;;1.60;99.90;;;;;;5048383;28;20656;-81
2021/01/05 12:12:57;;;;;;;5.57;4.00;;;1.60;99.90;;;;;;5047660;28;20332;-82
2021/01/05 12:15:22;;;;;;;6.33;3.87;;;1.70;99.90;;;;;;5047545;28;20206;-81
2021/01/05 12:17:48;;;;;;;5.70;3.83;;;1.80;99.90;;;;;;5047724;28;20190;-82
2021/01/05 12:20:13;;;;;;;4.00;3.57;;;1.80;99.90;;;;;;5047574;28;20201;-82
2021/01/05 12:22:39;;;;;;;3.97;3.40;;;1.90;99.90;;;;;;5049638;28;20186;-79
2021/01/05 12:25:05;;;;;;;4.80;3.33;;;1.90;99.90;;;;;;5047704;28;20234;-80
2021/01/05 12:27:31;;;;;;;3.80;2.83;;;1.90;99.90;;;;;;5063833;28;20675;-80
2021/01/05 12:29:56;;;;;;;3.90;2.70;;;1.90;99.90;;;;;;5063401;28;20193;-78
2021/01/05 12:32:22;;;;;;;4.13;2.77;;;1.90;99.90;;;;;;5048083;28;20225;-81
2021/01/05 12:34:50;;;;;;;4.17;2.50;;;1.90;99.90;;;;;;5051015;28;20634;-83
2021/01/05 12:37:19;;;;;;;3.03;1.93;;;1.90;99.90;;;;;;5065138;28;20183;-80
2021/01/05 12:39:45;;;;;;;3.30;2.83;;;1.80;99.90;;;;;;5048749;28;20271;-79
2021/01/05 12:42:16;;;;;;;3.37;2.37;;;1.80;99.90;;;;;;5047068;28;20318;-75
2021/01/05 12:44:42;;;;;;;3.83;2.60;;;1.80;99.90;;;;;;5049118;28;20302;-78
2021/01/05 12:47:08;;;;;;;9.17;4.37;;;1.80;99.90;;;;;;5049210;28;20223;-79
2021/01/05 12:49:35;;;;;;;9.00;5.17;;;1.70;99.90;;;;;;5048965;28;20546;-79
2021/01/05 12:52:19;;;;;;;5.57;3.63;;;1.70;99.90;;;;;;5048655;28;20220;-79
2021/01/05 12:54:45;;;;;;;7.60;5.33;;;1.60;99.90;;;;;;5064056;28;20244;-80
2021/01/05 12:57:15;;;;;;;4.17;3.20;;;1.70;99.90;;;;;;5046831;28;20190;-78
2021/01/05 12:59:42;;;;;;;4.40;2.50;;;1.70;99.90;;;;;;5046053;28;21195;-77
2021/01/05 13:02:12;;;;;;;7.00;4.17;;;1.70;99.90;;;;;;5046356;28;20182;-78
2021/01/05 13:04:38;;;;;;;6.23;3.97;;;1.70;99.90;;;;;;5059901;28;20217;-78
2021/01/05 13:07:04;;;;;;;6.73;4.63;;;1.70;99.90;;;;;;5042383;28;20313;-77
2021/01/05 13:09:29;;;;;;;7.30;5.00;;;1.70;99.90;;;;;;5044317;28;20388;-78
2021/01/05 13:11:55;;;;;;;12.73;9.27;;;1.70;99.90;;;;;;5042869;28;20214;-78
2021/01/05 13:14:22;;;;;;;5.07;4.27;;;1.70;99.90;;;;;;5044359;28;20680;-77
2021/01/05 13:16:48;;;;;;;5.60;3.67;;;1.60;99.90;;;;;;5042460;28;20194;-77